createdAt,value
2024-03-16T00:01:04.595Z,101455.14
2024-03-16T00:03:34.036Z,101450.42
2024-03-16T00:05:44.308Z,101446.39
2024-03-16T00:07:53.652Z,101443.27
2024-03-16T00:10:03.559Z,101439.47
2024-03-16T00:12:13.802Z,101434.23
2024-03-16T00:14:23.430Z,101437.52
2024-03-16T00:16:34.490Z,101435.48
2024-03-16T00:18:44.525Z,101439.38
2024-03-16T00:20:54.030Z,101432.98
2024-03-16T00:23:04.057Z,101433.92
2024-03-16T00:25:13.769Z,101432.98
2024-03-16T00:27:23.642Z,101431.15
2024-03-16T00:29:33.298Z,101427.11
2024-03-16T00:31:42.664Z,101427.11
2024-03-16T00:33:52.512Z,101426.82
2024-03-16T00:36:02.697Z,101433.54
2024-03-16T00:38:13.072Z,101436.21
2024-03-16T00:40:22.856Z,101437.91
2024-03-16T00:42:32.410Z,101435.18
2024-03-16T00:44:42.000Z,101433.11
2024-03-16T00:46:51.460Z,101442.96
2024-03-16T00:49:01.316Z,101442.29
2024-03-16T00:51:10.873Z,101435.52
2024-03-16T00:53:20.391Z,101436.49
2024-03-16T00:55:31.138Z,101436.67
2024-03-16T00:57:42.099Z,101435.73
2024-03-16T00:59:51.928Z,101433.68
2024-03-16T01:02:01.718Z,101433.74
2024-03-16T01:04:11.527Z,101432.14
2024-03-16T01:06:20.996Z,101431.36
2024-03-16T01:08:30.618Z,101431.79
2024-03-16T01:10:40.266Z,101431.56
2024-03-16T01:12:50.277Z,101434.94
2024-03-16T01:15:01.209Z,101437.73
2024-03-16T01:17:11.104Z,101433.38
2024-03-16T01:19:21.261Z,101434.86
2024-03-16T01:21:30.614Z,101438.41
2024-03-16T01:23:40.146Z,101437.77
2024-03-16T01:25:51.697Z,101436.20
2024-03-16T01:28:01.239Z,101433.85
2024-03-16T01:30:11.930Z,101427.30
2024-03-16T01:32:21.607Z,101434.12
2024-03-16T01:34:31.582Z,101432.88
2024-03-16T01:36:41.096Z,101429.59
2024-03-16T01:38:51.807Z,101426.33
2024-03-16T01:41:01.648Z,101424.80
2024-03-16T01:43:12.274Z,101424.68
2024-03-16T01:45:21.804Z,101420.20
2024-03-16T01:47:33.718Z,101420.70
2024-03-16T01:49:43.509Z,101413.81
2024-03-16T01:51:53.347Z,101415.20
2024-03-16T01:54:02.941Z,101414.30
2024-03-16T01:56:12.364Z,101414.21
2024-03-16T01:58:21.883Z,101412.32
2024-03-16T02:00:31.760Z,101413.33
2024-03-16T02:02:41.733Z,101407.73
2024-03-16T02:04:51.340Z,101406.33
2024-03-16T02:07:05.624Z,101405.72
2024-03-16T02:09:15.184Z,101406.63
2024-03-16T02:11:25.867Z,101402.92
2024-03-16T02:13:35.465Z,101404.82
2024-03-16T02:15:45.271Z,101404.57
2024-03-16T02:17:55.514Z,101397.80
2024-03-16T02:20:07.199Z,101398.67
2024-03-16T02:22:16.700Z,101403.35
2024-03-16T02:24:27.286Z,101400.14
2024-03-16T02:26:37.896Z,101400.50
2024-03-16T02:28:47.551Z,101406.73
2024-03-16T02:30:57.862Z,101404.41
2024-03-16T02:33:09.269Z,101403.96
2024-03-16T02:35:19.975Z,101405.58
2024-03-16T02:37:29.515Z,101406.61
2024-03-16T02:39:38.759Z,101404.80
2024-03-16T02:41:48.464Z,101403.41
2024-03-16T02:43:57.909Z,101407.08
2024-03-16T02:46:08.225Z,101409.60
2024-03-16T02:48:18.128Z,101406.94
2024-03-16T02:50:28.170Z,101410.97
2024-03-16T02:52:37.585Z,101405.30
2024-03-16T02:54:47.475Z,101405.98
2024-03-16T02:56:57.106Z,101407.04
2024-03-16T02:59:07.848Z,101406.54
2024-03-16T03:01:18.629Z,101404.50
2024-03-16T03:03:28.358Z,101407.95
2024-03-16T03:05:38.272Z,101405.61
2024-03-16T03:07:48.278Z,101408.66
2024-03-16T03:09:58.271Z,101404.74
2024-03-16T03:12:08.198Z,101402.46
2024-03-16T03:14:19.079Z,101403.53
2024-03-16T03:16:28.906Z,101407.50
2024-03-16T03:18:38.661Z,101406.89
2024-03-16T03:20:48.796Z,101406.05
2024-03-16T03:22:59.641Z,101402.77
2024-03-16T03:25:09.309Z,101397.75
2024-03-16T03:27:18.918Z,101401.98
2024-03-16T03:29:28.377Z,101401.95
2024-03-16T03:31:37.917Z,101404.96
2024-03-16T03:33:47.967Z,101405.13
2024-03-16T03:35:57.933Z,101400.63
2024-03-16T03:38:09.682Z,101401.25
2024-03-16T03:40:20.363Z,101399.54
2024-03-16T03:42:31.619Z,101398.39
2024-03-16T03:44:51.915Z,101397.05
2024-03-16T03:47:01.668Z,101395.20
2024-03-16T03:49:28.138Z,101388.20
2024-03-16T03:51:38.096Z,101382.17
2024-03-16T03:53:47.710Z,101374.86
2024-03-16T03:55:58.039Z,101373.52
2024-03-16T03:58:07.585Z,101374.20
2024-03-16T04:00:17.667Z,101379.20
2024-03-16T04:02:27.610Z,101378.16
2024-03-16T04:04:37.688Z,101379.03
2024-03-16T04:06:48.674Z,101374.66
2024-03-16T04:08:58.156Z,101366.46
2024-03-16T04:11:08.957Z,101362.93
2024-03-16T04:13:18.981Z,101357.02
2024-03-16T04:15:28.786Z,101356.11
2024-03-16T04:17:38.611Z,101355.69
2024-03-16T04:19:49.252Z,101358.15
2024-03-16T04:21:59.234Z,101358.42
2024-03-16T04:24:09.402Z,101362.66
2024-03-16T04:26:18.934Z,101362.21
2024-03-16T04:28:28.355Z,101362.48
2024-03-16T04:30:37.985Z,101366.95
2024-03-16T04:32:48.143Z,101369.08
2024-03-16T04:34:57.630Z,101366.54
2024-03-16T04:37:07.280Z,101367.72
2024-03-16T04:39:17.528Z,101362.93
2024-03-16T04:41:29.403Z,101360.89
2024-03-16T04:43:40.297Z,101350.75
2024-03-16T04:45:52.022Z,101353.67
2024-03-16T04:48:01.655Z,101354.92
2024-03-16T04:50:13.730Z,101352.46
2024-03-16T04:52:23.665Z,101352.11
2024-03-16T04:54:33.013Z,101353.84
2024-03-16T04:56:42.772Z,101352.27
2024-03-16T04:58:52.385Z,101351.95
2024-03-16T05:01:02.214Z,101355.06
2024-03-16T05:03:11.881Z,101352.91
2024-03-16T05:05:21.732Z,101352.24
2024-03-16T05:07:33.305Z,101353.85
2024-03-16T05:09:43.099Z,101354.64
2024-03-16T05:11:52.865Z,101357.15
2024-03-16T05:14:03.618Z,101356.14
2024-03-16T05:16:13.536Z,101354.64
2024-03-16T05:18:23.368Z,101351.94
2024-03-16T05:20:32.958Z,101346.55
2024-03-16T05:22:42.726Z,101342.30
2024-03-16T05:24:52.204Z,101335.18
2024-03-16T05:27:02.217Z,101333.28
2024-03-16T05:29:11.707Z,101330.02
2024-03-16T05:31:21.285Z,101331.37
2024-03-16T05:33:30.790Z,101321.23
2024-03-16T05:35:42.863Z,101318.10
2024-03-16T05:37:52.168Z,101320.82
2024-03-16T05:40:01.808Z,101322.28
2024-03-16T05:42:13.408Z,101324.77
2024-03-16T05:44:22.706Z,101322.77
2024-03-16T05:46:32.856Z,101321.51
2024-03-16T05:48:43.016Z,101321.86
2024-03-16T05:50:55.720Z,101321.36
2024-03-16T05:53:05.762Z,101326.50
2024-03-16T05:55:17.650Z,101324.88
2024-03-16T05:57:27.416Z,101319.43
2024-03-16T05:59:36.927Z,101319.45
2024-03-16T06:01:47.207Z,101322.02
2024-03-16T06:03:57.328Z,101318.87
2024-03-16T06:06:07.481Z,101312.05
2024-03-16T06:08:17.584Z,101309.96
2024-03-16T06:10:27.070Z,101312.54
2024-03-16T06:12:36.725Z,101310.15
2024-03-16T06:14:46.106Z,101310.32
2024-03-16T06:16:56.009Z,101315.36
2024-03-16T06:19:06.293Z,101317.99
2024-03-16T06:21:16.436Z,101319.41
2024-03-16T06:23:26.130Z,101319.17
2024-03-16T06:27:55.149Z,101321.36
2024-03-16T06:30:05.425Z,101320.77
2024-03-16T06:32:22.158Z,101321.11
2024-03-16T06:34:31.691Z,101320.98
2024-03-16T06:36:41.505Z,101323.80
2024-03-16T06:38:51.319Z,101320.59
2024-03-16T06:41:01.697Z,101323.84
2024-03-16T06:43:11.246Z,101317.17
2024-03-16T06:45:21.088Z,101324.27
2024-03-16T06:47:30.417Z,101321.83
2024-03-16T06:49:39.944Z,101321.17
2024-03-16T06:51:49.647Z,101326.98
2024-03-16T06:53:59.832Z,101323.13
2024-03-16T06:56:11.616Z,101325.49
2024-03-16T06:58:21.543Z,101327.72
2024-03-16T07:00:32.015Z,101327.77
2024-03-16T07:02:41.499Z,101324.79
2024-03-16T07:04:51.258Z,101324.80
2024-03-16T07:07:00.747Z,101329.98
2024-03-16T07:09:12.289Z,101331.21
2024-03-16T07:11:22.366Z,101332.86
2024-03-16T07:13:31.669Z,101330.89
2024-03-16T07:15:41.428Z,101334.94
2024-03-16T07:17:50.854Z,101327.05
2024-03-16T07:20:00.367Z,101317.05
2024-03-16T07:22:10.634Z,101316.38
2024-03-16T07:24:20.854Z,101314.70
2024-03-16T07:26:30.558Z,101313.94
2024-03-16T07:28:40.836Z,101313.91
2024-03-16T07:30:50.766Z,101318.30
2024-03-16T07:33:00.686Z,101317.52
2024-03-16T07:35:10.181Z,101316.40
2024-03-16T07:37:20.165Z,101316.73
2024-03-16T07:39:29.729Z,101316.45
2024-03-16T07:41:39.130Z,101316.16
2024-03-16T07:43:48.924Z,101315.89
2024-03-16T07:45:58.438Z,101308.94
2024-03-16T07:48:08.496Z,101309.98
2024-03-16T07:50:18.030Z,101307.28
2024-03-16T07:52:29.052Z,101310.81
2024-03-16T07:54:39.129Z,101310.00
2024-03-16T07:56:50.834Z,101308.17
2024-03-16T07:59:01.111Z,101314.61
2024-03-16T08:01:12.240Z,101312.89
2024-03-16T08:03:21.938Z,101317.92
2024-03-16T08:05:32.627Z,101316.98
2024-03-16T08:07:43.651Z,101311.03
2024-03-16T08:09:53.589Z,101317.38
2024-03-16T08:12:03.090Z,101312.29
2024-03-16T08:14:13.214Z,101303.48
2024-03-16T08:16:23.415Z,101311.31
2024-03-16T08:18:32.922Z,101308.83
2024-03-16T08:20:43.366Z,101317.00
2024-03-16T08:22:56.009Z,101312.55
2024-03-16T08:25:05.897Z,101310.52
2024-03-16T08:27:15.471Z,101316.38
2024-03-16T08:29:25.294Z,101311.47
2024-03-16T08:31:35.217Z,101313.79
2024-03-16T08:33:44.815Z,101323.72
2024-03-16T08:35:54.598Z,101314.63
2024-03-16T08:38:04.002Z,101317.34
2024-03-16T08:40:15.679Z,101323.34
2024-03-16T08:42:25.595Z,101319.84
2024-03-16T08:44:36.894Z,101315.73
2024-03-16T08:46:46.764Z,101323.34
2024-03-16T08:48:56.521Z,101314.70
2024-03-16T08:51:06.474Z,101313.27
2024-03-16T08:53:16.131Z,101314.06
2024-03-16T08:55:27.482Z,101314.34
2024-03-16T08:57:37.702Z,101315.70
2024-03-16T08:59:47.831Z,101307.72
2024-03-16T09:01:57.352Z,101315.56
2024-03-16T09:04:08.068Z,101313.39
2024-03-16T09:06:17.681Z,101312.95
2024-03-16T09:08:27.403Z,101314.25
2024-03-16T09:10:37.436Z,101313.82
2024-03-16T09:12:48.990Z,101311.66
2024-03-16T09:14:58.989Z,101309.04
2024-03-16T09:17:09.211Z,101308.90
2024-03-16T09:19:18.858Z,101311.97
2024-03-16T09:21:28.419Z,101306.58
2024-03-16T09:23:38.925Z,101302.14
2024-03-16T09:25:55.942Z,101294.52
2024-03-16T09:28:05.327Z,101290.38
2024-03-16T09:30:16.761Z,101284.60
2024-03-16T09:32:26.268Z,101281.80
2024-03-16T09:34:36.319Z,101272.50
2024-03-16T09:36:46.476Z,101264.04
2024-03-16T09:38:56.007Z,101259.60
2024-03-16T09:41:06.379Z,101262.27
2024-03-16T09:43:16.909Z,101251.41
2024-03-16T09:45:27.421Z,101252.27
2024-03-16T09:47:37.557Z,101246.10
2024-03-16T09:49:49.601Z,101240.02
2024-03-16T09:52:01.326Z,101231.45
2024-03-16T09:54:13.118Z,101230.05
2024-03-16T09:56:23.040Z,101223.38
2024-03-16T09:58:32.658Z,101216.77
2024-03-16T10:00:45.976Z,101219.76
2024-03-16T10:02:55.448Z,101209.06
2024-03-16T10:05:06.949Z,101201.97
2024-03-16T10:07:16.767Z,101197.33
2024-03-16T10:09:27.708Z,101210.95
2024-03-16T10:11:38.042Z,101208.35
2024-03-16T10:13:56.567Z,101210.02
2024-03-16T10:16:06.463Z,101215.13
2024-03-16T10:18:17.086Z,101210.98
2024-03-16T10:20:26.682Z,101212.70
2024-03-16T10:22:36.798Z,101209.09
2024-03-16T10:24:46.267Z,101201.68
2024-03-16T10:26:55.980Z,101195.15
2024-03-16T10:29:06.084Z,101185.05
2024-03-16T10:31:15.887Z,101171.73
2024-03-16T10:33:26.739Z,101166.52
2024-03-16T10:35:36.974Z,101160.34
2024-03-16T10:37:50.547Z,101156.59
2024-03-16T10:40:01.361Z,101151.05
2024-03-16T10:42:17.829Z,101149.48
2024-03-16T10:44:28.500Z,101157.08
2024-03-16T10:46:37.878Z,101156.91
2024-03-16T10:48:47.253Z,101146.50
2024-03-16T10:50:57.586Z,101140.11
2024-03-16T10:53:08.420Z,101131.20
2024-03-16T10:55:24.230Z,101125.92
2024-03-16T10:57:34.464Z,101120.88
2024-03-16T10:59:45.996Z,101121.14
2024-03-16T11:01:57.179Z,101121.80
2024-03-16T11:04:08.687Z,101120.17
2024-03-16T11:06:23.608Z,101116.68
2024-03-16T11:08:43.918Z,101116.71
2024-03-16T11:10:54.670Z,101114.08
2024-03-16T11:13:17.489Z,101114.56
2024-03-16T11:15:42.910Z,101114.10
2024-03-16T11:17:52.790Z,101130.03
2024-03-16T11:20:15.689Z,101148.89
2024-03-16T11:22:26.000Z,101178.04
2024-03-16T11:24:36.057Z,101198.86
2024-03-16T11:26:46.479Z,101204.77
2024-03-16T11:28:57.307Z,101213.95
2024-03-16T11:31:31.885Z,101225.71
2024-03-16T11:33:43.179Z,101232.83
2024-03-16T11:35:53.208Z,101235.58
2024-03-16T11:38:02.531Z,101234.64
2024-03-16T11:40:13.920Z,101231.88
2024-03-16T11:42:23.451Z,101228.90
2024-03-16T11:44:32.850Z,101229.80
2024-03-16T11:46:43.467Z,101226.75
2024-03-16T11:48:52.951Z,101214.50
2024-03-16T11:51:02.881Z,101213.81
2024-03-16T11:53:12.802Z,101205.30
2024-03-16T11:55:23.424Z,101210.27
2024-03-16T11:57:32.733Z,101210.52
2024-03-16T11:59:42.602Z,101215.08
2024-03-16T12:01:53.350Z,101211.45
2024-03-16T12:04:03.740Z,101211.17
2024-03-16T12:06:13.502Z,101213.58
2024-03-16T12:08:22.878Z,101215.48
2024-03-16T12:10:34.215Z,101211.77
2024-03-16T12:12:45.391Z,101208.67
2024-03-16T12:15:08.580Z,101210.05
2024-03-16T12:17:18.023Z,101207.27
2024-03-16T12:19:27.381Z,101209.19
2024-03-16T12:21:37.055Z,101208.83
2024-03-16T12:23:50.641Z,101207.52
2024-03-16T12:26:00.860Z,101201.48
2024-03-16T12:28:10.536Z,101192.66
2024-03-16T12:30:20.322Z,101193.07
2024-03-16T12:32:30.005Z,101199.52
2024-03-16T12:34:41.201Z,101206.24
2024-03-16T12:36:51.173Z,101209.33
2024-03-16T12:39:00.676Z,101208.00
2024-03-16T12:41:10.852Z,101219.39
2024-03-16T12:43:21.323Z,101223.48
2024-03-16T12:45:30.791Z,101224.60
2024-03-16T12:47:40.561Z,101217.39
2024-03-16T12:49:50.930Z,101214.08
2024-03-16T12:52:00.504Z,101214.73
2024-03-16T12:54:11.048Z,101219.65
2024-03-16T12:56:20.763Z,101222.30
2024-03-16T12:58:30.374Z,101221.73
2024-03-16T13:00:40.013Z,101222.17
2024-03-16T13:02:49.765Z,101225.68
2024-03-16T13:04:59.851Z,101222.95
2024-03-16T13:07:09.864Z,101221.81
2024-03-16T13:09:19.316Z,101218.09
2024-03-16T13:11:29.099Z,101224.98
2024-03-16T13:13:38.901Z,101227.68
2024-03-16T13:15:48.682Z,101228.98
2024-03-16T13:17:58.387Z,101233.88
2024-03-16T13:20:11.014Z,101229.41
2024-03-16T13:22:20.684Z,101231.13
2024-03-16T13:24:30.208Z,101227.34
2024-03-16T13:26:39.821Z,101227.34
2024-03-16T13:28:49.490Z,101225.39
2024-03-16T13:30:59.699Z,101225.59
2024-03-16T13:33:10.519Z,101226.39
2024-03-16T13:35:20.688Z,101227.21
2024-03-16T13:37:31.294Z,101225.97
2024-03-16T13:39:41.019Z,101228.24
2024-03-16T13:41:51.068Z,101222.13
2024-03-16T13:44:01.028Z,101220.52
2024-03-16T13:46:14.798Z,101219.91
2024-03-16T13:48:26.024Z,101226.08
2024-03-16T13:50:35.610Z,101228.95
2024-03-16T13:52:45.310Z,101223.51
2024-03-16T13:54:54.719Z,101222.95
2024-03-16T13:57:04.690Z,101225.92
2024-03-16T13:59:14.342Z,101234.36
2024-03-16T14:01:24.146Z,101243.41
2024-03-16T14:03:33.559Z,101242.94
2024-03-16T14:05:43.019Z,101238.18
2024-03-16T14:07:52.369Z,101239.48
2024-03-16T14:10:03.146Z,101246.25
2024-03-16T14:12:12.691Z,101249.22
2024-03-16T14:14:21.900Z,101250.86
2024-03-16T14:16:31.378Z,101256.41
2024-03-16T14:18:40.826Z,101258.70
2024-03-16T14:20:50.060Z,101257.23
2024-03-16T14:22:59.551Z,101262.64
2024-03-16T14:25:09.376Z,101264.88
2024-03-16T14:27:18.669Z,101267.36
2024-03-16T14:29:28.441Z,101268.48
2024-03-16T14:31:38.398Z,101272.20
2024-03-16T14:33:47.694Z,101269.48
2024-03-16T14:35:57.575Z,101268.70
2024-03-16T14:38:07.619Z,101268.90
2024-03-16T14:40:24.038Z,101272.23
2024-03-16T14:42:33.580Z,101275.10
2024-03-16T14:44:42.978Z,101268.22
2024-03-16T14:46:53.139Z,101276.45
2024-03-16T14:49:03.176Z,101277.07
2024-03-16T14:51:12.600Z,101279.66
2024-03-16T14:53:21.999Z,101285.38
2024-03-16T14:55:31.560Z,101285.20
2024-03-16T14:57:41.021Z,101287.38
2024-03-16T14:59:50.430Z,101290.13
2024-03-16T15:02:00.513Z,101288.08
2024-03-16T15:04:10.006Z,101293.05
2024-03-16T15:06:19.707Z,101288.77
2024-03-16T15:08:29.179Z,101286.98
2024-03-16T15:10:38.525Z,101293.12
2024-03-16T15:12:48.151Z,101286.98
2024-03-16T15:14:57.772Z,101282.52
2024-03-16T15:17:07.298Z,101284.56
2024-03-16T15:19:17.379Z,101288.39
2024-03-16T15:21:27.482Z,101281.89
2024-03-16T15:23:36.976Z,101275.56
2024-03-16T15:26:03.889Z,101279.98
2024-03-16T15:28:15.316Z,101280.02
2024-03-16T15:30:26.043Z,101282.80
2024-03-16T15:32:36.722Z,101286.86
2024-03-16T15:34:46.175Z,101289.23
2024-03-16T15:36:55.942Z,101285.13
2024-03-16T15:39:06.300Z,101284.08
2024-03-16T15:41:16.877Z,101275.59
2024-03-16T15:43:26.471Z,101279.84
2024-03-16T15:47:19.550Z,101276.54
2024-03-16T15:49:33.061Z,101281.45
2024-03-16T15:51:45.097Z,101281.19
2024-03-16T15:53:59.396Z,101284.20
2024-03-16T15:56:15.013Z,101281.71
2024-03-16T15:58:28.947Z,101285.32
2024-03-16T16:00:43.066Z,101285.27
2024-03-16T16:02:57.595Z,101286.68
2024-03-16T16:05:14.417Z,101290.48
2024-03-16T16:07:26.590Z,101288.33
2024-03-16T16:09:38.910Z,101294.63
2024-03-16T16:11:51.773Z,101293.83
2024-03-16T16:14:05.234Z,101297.39
2024-03-16T16:16:17.370Z,101298.55
2024-03-16T16:18:29.562Z,101307.55
2024-03-16T16:20:41.830Z,101307.27
2024-03-16T16:22:55.645Z,101307.33
2024-03-16T16:25:08.827Z,101302.27
2024-03-16T16:27:21.980Z,101304.33
2024-03-16T16:29:33.913Z,101308.89
2024-03-16T16:31:45.904Z,101305.59
2024-03-16T16:33:55.737Z,101308.56
2024-03-16T16:36:08.286Z,101307.04
2024-03-16T16:38:20.468Z,101309.31
2024-03-16T16:40:32.549Z,101307.14
2024-03-16T16:42:45.106Z,101306.59
2024-03-16T16:44:57.329Z,101305.66
2024-03-16T16:47:06.875Z,101306.39
2024-03-16T16:49:18.988Z,101305.94
2024-03-16T16:51:31.059Z,101310.70
2024-03-16T16:53:43.457Z,101307.98
2024-03-16T16:55:55.942Z,101305.75
2024-03-16T16:58:07.998Z,101303.98
2024-03-16T17:00:22.745Z,101307.93
2024-03-16T17:02:36.764Z,101315.67
2024-03-16T17:04:49.218Z,101318.29
2024-03-16T17:07:01.852Z,101318.84
2024-03-16T17:09:13.708Z,101312.16
2024-03-16T17:11:26.476Z,101309.88
2024-03-16T17:13:40.498Z,101305.96
2024-03-16T17:15:52.438Z,101304.55
2024-03-16T17:18:06.751Z,101309.14
2024-03-16T17:20:27.357Z,101309.33
2024-03-16T17:22:39.550Z,101310.17
2024-03-16T17:24:51.929Z,101310.35
2024-03-16T17:27:03.256Z,101311.87
2024-03-16T17:29:17.200Z,101317.79
2024-03-16T17:31:29.346Z,101313.66
2024-03-16T17:33:41.612Z,101312.31
2024-03-16T17:35:54.231Z,101313.14
2024-03-16T17:38:10.774Z,101311.73
2024-03-16T17:40:23.010Z,101311.84
2024-03-16T17:42:35.610Z,101304.30
2024-03-16T17:44:47.557Z,101309.14
2024-03-16T17:46:59.527Z,101308.48
2024-03-16T17:49:12.280Z,101309.83
2024-03-16T17:51:24.470Z,101314.33
2024-03-16T17:53:36.864Z,101316.10
2024-03-16T17:55:49.711Z,101315.45
2024-03-16T17:58:01.993Z,101317.23
2024-03-16T18:00:17.018Z,101315.52
2024-03-16T18:02:29.420Z,101317.70
2024-03-16T18:04:38.901Z,101314.69
2024-03-16T18:06:51.759Z,101312.76
2024-03-16T18:09:05.902Z,101311.02
2024-03-16T18:11:17.801Z,101308.95
2024-03-16T18:13:29.864Z,101308.38
2024-03-16T18:15:42.650Z,101309.63
2024-03-16T18:18:01.225Z,101310.24
2024-03-16T18:20:21.967Z,101306.80
2024-03-16T18:22:35.140Z,101313.27
2024-03-16T18:24:51.393Z,101310.97
2024-03-16T18:27:03.872Z,101310.42
2024-03-16T18:29:16.470Z,101316.14
2024-03-16T18:31:29.133Z,101316.44
2024-03-16T18:33:41.610Z,101318.54
2024-03-16T18:35:54.108Z,101317.76
2024-03-16T18:38:07.197Z,101315.23
2024-03-16T18:40:22.809Z,101317.65
2024-03-16T18:42:36.291Z,101321.96
2024-03-16T18:44:48.716Z,101323.02
2024-03-16T18:47:02.718Z,101321.71
2024-03-16T18:49:15.286Z,101321.82
2024-03-16T18:51:28.780Z,101321.42
2024-03-16T18:53:41.434Z,101319.58
2024-03-16T18:55:54.488Z,101327.67
2024-03-16T18:58:07.924Z,101333.11
2024-03-16T19:00:24.456Z,101333.45
2024-03-16T19:02:45.042Z,101337.77
2024-03-16T19:05:00.883Z,101334.41
2024-03-16T19:07:13.618Z,101339.10
2024-03-16T19:09:27.261Z,101338.84
2024-03-16T19:11:39.999Z,101341.23
2024-03-16T19:13:55.056Z,101341.95
2024-03-16T19:16:08.290Z,101344.49
2024-03-16T19:18:20.798Z,101345.94
2024-03-16T19:20:33.843Z,101350.02
2024-03-16T19:22:46.949Z,101349.27
2024-03-16T19:25:00.397Z,101349.70
2024-03-16T19:27:13.707Z,101348.36
2024-03-16T19:29:26.609Z,101346.97
2024-03-16T19:31:40.156Z,101349.52
2024-03-16T19:33:52.686Z,101345.77
2024-03-16T19:36:05.452Z,101347.73
2024-03-16T19:38:18.308Z,101352.69
2024-03-16T19:40:31.155Z,101350.54
2024-03-16T19:42:43.717Z,101349.15
2024-03-16T19:44:56.753Z,101353.02
2024-03-16T19:47:09.656Z,101357.59
2024-03-16T19:49:22.130Z,101354.58
2024-03-16T19:51:34.735Z,101351.90
2024-03-16T19:53:47.161Z,101352.88
2024-03-16T19:56:00.353Z,101358.08
2024-03-16T19:58:13.453Z,101360.10
2024-03-16T20:00:27.725Z,101358.83
2024-03-16T20:38:06.046Z,101386.89
2024-03-16T20:40:20.033Z,101388.06
2024-03-16T20:42:35.629Z,101391.08
2024-03-16T20:44:48.178Z,101392.50
2024-03-16T20:47:01.543Z,101387.91
2024-03-16T20:49:14.736Z,101390.91
2024-03-16T20:51:27.567Z,101392.92
2024-03-16T20:53:40.388Z,101393.29
2024-03-16T20:55:53.366Z,101395.54
2024-03-16T20:58:06.137Z,101395.19
2024-03-16T21:00:19.598Z,101398.48
2024-03-16T21:02:32.980Z,101400.21
2024-03-16T21:04:45.703Z,101396.80
2024-03-16T21:06:58.339Z,101401.77
2024-03-16T21:09:11.316Z,101407.88
2024-03-16T21:11:27.189Z,101408.02
2024-03-16T21:13:40.274Z,101406.58
2024-03-16T21:15:52.711Z,101407.73
2024-03-16T21:18:05.273Z,101409.98
2024-03-16T21:20:19.280Z,101408.80
2024-03-16T21:22:34.466Z,101412.15
2024-03-16T21:24:47.202Z,101414.80
2024-03-16T21:26:59.708Z,101409.61
2024-03-16T21:29:12.091Z,101410.19
2024-03-16T21:31:28.858Z,101408.92
2024-03-16T21:33:41.522Z,101410.15
2024-03-16T21:35:54.316Z,101409.70
2024-03-16T21:38:07.022Z,101414.02
2024-03-16T21:40:20.939Z,101408.76
2024-03-16T21:42:33.899Z,101407.53
2024-03-16T21:44:46.601Z,101415.70
2024-03-16T21:46:59.059Z,101409.82
2024-03-16T21:49:11.551Z,101409.85
2024-03-16T21:51:24.461Z,101414.00
2024-03-16T21:53:38.249Z,101419.16
2024-03-16T21:55:51.791Z,101421.06
2024-03-16T21:58:05.475Z,101427.06
2024-03-16T22:00:19.530Z,101426.31
2024-03-16T22:02:32.476Z,101428.76
2024-03-16T22:04:47.590Z,101434.49
2024-03-16T22:07:00.046Z,101435.01
2024-03-16T22:09:12.662Z,101441.46
2024-03-16T22:11:25.199Z,101444.46
2024-03-16T22:13:38.270Z,101442.20
2024-03-16T22:15:50.752Z,101447.77
2024-03-16T22:18:03.676Z,101446.95
2024-03-16T22:20:17.531Z,101453.32
2024-03-16T22:22:30.140Z,101456.14
2024-03-16T22:24:42.780Z,101453.18
2024-03-16T22:26:55.173Z,101452.61
2024-03-16T22:29:08.689Z,101447.24
2024-03-16T22:31:22.220Z,101453.94
2024-03-16T22:33:34.846Z,101457.33
2024-03-16T22:35:47.480Z,101459.58
2024-03-16T22:37:59.967Z,101460.45
2024-03-16T22:40:14.283Z,101463.86
2024-03-16T22:42:27.220Z,101465.45
2024-03-16T22:44:40.540Z,101466.98
2024-03-16T22:46:53.000Z,101466.41
2024-03-16T22:49:05.402Z,101467.13
2024-03-16T22:51:18.074Z,101470.94
2024-03-16T22:53:30.809Z,101475.04
2024-03-16T22:55:43.270Z,101476.78
2024-03-16T22:57:55.743Z,101475.96
2024-03-16T23:00:11.408Z,101477.39
2024-03-16T23:02:23.828Z,101482.48
2024-03-16T23:04:36.350Z,101484.01
2024-03-16T23:06:49.325Z,101484.17
2024-03-16T23:09:02.614Z,101484.96
2024-03-16T23:11:16.100Z,101484.88
2024-03-16T23:13:29.313Z,101485.79
2024-03-16T23:15:42.788Z,101489.24
2024-03-16T23:17:55.399Z,101487.13
2024-03-16T23:20:08.476Z,101490.14
2024-03-16T23:22:21.711Z,101489.42
2024-03-16T23:24:34.495Z,101489.48
2024-03-16T23:26:47.168Z,101491.55
2024-03-16T23:29:00.209Z,101494.77
2024-03-16T23:31:13.357Z,101496.55
2024-03-16T23:33:26.094Z,101500.77
2024-03-16T23:37:53.138Z,101505.39
2024-03-16T23:40:09.984Z,101507.58
2024-03-16T23:42:26.772Z,101508.85
2024-03-16T23:44:39.458Z,101508.41
2024-03-16T23:46:52.774Z,101512.97
2024-03-16T23:49:05.323Z,101513.74
2024-03-16T23:51:17.801Z,101513.55
2024-03-16T23:53:30.319Z,101513.55
2024-03-16T23:55:42.720Z,101513.34
2024-03-16T23:57:56.366Z,101514.83
